Cap Aiguades — FMII — position and weather

sailwx.info

Track history (hours):
 
Tides and Currents Weather Stations Pressure Air Temp Water Temp Dewpoint Dewpoint Depression Visibility Wind Speed Wind Dir Waves Ship Positions

Cap Aiguades

Last reported at 2015-Jan-29 17:28 UTC. Time now 2015-Jan-29 18:23 UTC.
Position N 43°24' E 004°59'.

Length 89 m; draft 4.8 m.

Type: Ship. MMSI: 228237800.

Date/timePositionNaut miles runAvg speedWind from/ knotsBaromVisibWave heightAir tempDewpointWater temp
2015-Jan-29 17:28N 43°24' E 004°59'0 0.0
2015-Jan-29 16:31N 43°24' E 004°59'0 0.0
2015-Jan-29 15:31N 43°24' E 004°59'0 0.0
2015-Jan-29 14:31N 43°24' E 004°59'0 0.0
2015-Jan-29 13:31N 43°24' E 004°59'0 0.0
2015-Jan-29 12:31N 43°24' E 004°59'0 0.0
2015-Jan-29 11:31N 43°24' E 004°59'0 0.0
2015-Jan-29 10:31N 43°24' E 004°59'0 0.0
2015-Jan-29 09:31N 43°24' E 004°59'0 0.0
2015-Jan-29 08:28N 43°24' E 004°59'0 0.0
2015-Jan-29 07:31N 43°24' E 004°59'0 0.0
2015-Jan-29 06:31N 43°24' E 004°59'0 0.0
2015-Jan-29 05:31N 43°24' E 004°59'0 0.0
2015-Jan-29 04:31N 43°24' E 004°59'0 0.0
2015-Jan-29 03:31N 43°24' E 004°59'0 0.0
2015-Jan-29 02:31N 43°24' E 004°59'0 0.0
2015-Jan-29 01:31N 43°24' E 004°59'0 0.0
2015-Jan-29 00:31N 43°24' E 004°59'0 0.0
2015-Jan-28 23:31N 43°24' E 004°59'0 0.0
2015-Jan-28 22:31N 43°24' E 004°59'5 4.3
2015-Jan-28 21:28N 43°25' E 004°53'0 0.0
2015-Jan-28 20:28N 43°25' E 004°53'0 0.0
2015-Jan-28 19:22N 43°25' E 004°53'0 0.0
2015-Jan-28 18:22N 43°25' E 004°53'1 0.9
2015-Jan-28 17:33N 43°24' E 004°53'4 4.5
2015-Jan-28 16:33N 43°24' E 004°59'0 0.0
2015-Jan-28 15:33N 43°24' E 004°59'0 0.0
2015-Jan-28 14:33N 43°24' E 004°59'0 0.0
2015-Jan-28 13:33N 43°24' E 004°59'0 0.0
2015-Jan-28 12:33N 43°24' E 004°59'0 0.0
2015-Jan-28 11:33N 43°24' E 004°59'0 0.0
2015-Jan-28 10:33N 43°24' E 004°59'0 0.0
2015-Jan-28 09:33N 43°24' E 004°59'0 0.0
2015-Jan-28 08:33N 43°24' E 004°59'0 0.0
2015-Jan-28 07:33N 43°24' E 004°59'0 0.0
2015-Jan-28 06:33N 43°24' E 004°59'0 0.0
2015-Jan-28 05:33N 43°24' E 004°59'0 0.0
2015-Jan-28 04:33N 43°24' E 004°59'0 0.0
2015-Jan-28 03:33N 43°24' E 004°59'0 0.0
2015-Jan-28 02:33N 43°24' E 004°59'0 0.0
2015-Jan-28 01:33N 43°24' E 004°59'0 0.0
2015-Jan-28 00:33N 43°24' E 004°59'0 0.0
2015-Jan-27 23:33N 43°24' E 004°59'0 0.0
2015-Jan-27 22:33N 43°24' E 004°59'0 0.0
2015-Jan-27 21:33N 43°24' E 004°59'0 0.0
2015-Jan-27 20:33N 43°24' E 004°59'0 0.0
2015-Jan-27 19:33N 43°24' E 004°59'0 0.0
2015-Jan-27 18:33N 43°24' E 004°59'0 0.0
2015-Jan-27 17:33N 43°24' E 004°59'4 4.0
2015-Jan-27 16:33N 43°24' E 004°54'2 0.4
2015-Jan-27 11:04N 43°25' E 004°51'4 0.9
2015-Jan-27 06:33N 43°24' E 004°56'2 2.1
2015-Jan-27 05:32N 43°24' E 004°59'0 0.0
2015-Jan-27 04:32N 43°24' E 004°59'0 0.0
2015-Jan-27 03:32N 43°24' E 004°59'0 0.0
2015-Jan-27 02:32N 43°24' E 004°59'0 0.0
2015-Jan-27 01:32N 43°24' E 004°59'0 0.0
2015-Jan-27 00:32N 43°24' E 004°59'0 0.0
2015-Jan-26 23:32N 43°24' E 004°59'0 0.0
2015-Jan-26 22:32N 43°24' E 004°59'0 0.0
2015-Jan-26 21:32N 43°24' E 004°59'0 0.0
2015-Jan-26 20:32N 43°24' E 004°59'0 0.0
2015-Jan-26 19:32N 43°24' E 004°59'0 0.0
2015-Jan-26 18:32N 43°24' E 004°59'0 0.0
2015-Jan-26 17:32N 43°24' E 004°59'3 3.1
2015-Jan-26 16:33N 43°24' E 004°55'3 2.7
2015-Jan-26 15:21N 43°25' E 004°51'0 0.0
2015-Jan-26 10:27N 43°25' E 004°51'2 0.5
2015-Jan-26 07:28N 43°24' E 004°53'5 5.2
2015-Jan-26 06:32N 43°24' E 004°60'0 0.0
2015-Jan-26 05:32N 43°24' E 004°60'0 0.0
2015-Jan-26 04:32N 43°24' E 004°60'0 0.0
2015-Jan-26 03:32N 43°24' E 004°60'0 0.0
2015-Jan-26 02:32N 43°24' E 004°60'0 0.0
2015-Jan-26 01:32N 43°24' E 004°60'0 0.0
2015-Jan-26 00:32N 43°24' E 004°60'0 0.0
2015-Jan-25 23:32N 43°24' E 004°60'0 0.0
2015-Jan-25 22:32N 43°24' E 004°60'0 0.0
2015-Jan-25 21:32N 43°24' E 004°60'1 0.6
2015-Jan-25 20:32N 43°24' E 004°59'0 0.0
2015-Jan-25 19:32N 43°24' E 004°59'0 0.0
2015-Jan-25 18:32N 43°24' E 004°59'0 0.0
2015-Jan-25 17:32N 43°24' E 004°59'0 0.0
2015-Jan-25 16:32N 43°24' E 004°59'0 0.0
2015-Jan-25 15:32N 43°24' E 004°59'0 0.0
2015-Jan-25 14:32N 43°24' E 004°59'0 0.0
2015-Jan-25 13:32N 43°24' E 004°59'0 0.0
2015-Jan-25 12:32N 43°24' E 004°59'0 0.0
2015-Jan-25 11:32N 43°24' E 004°59'0 0.0
2015-Jan-25 10:32N 43°24' E 004°59'0 0.0
2015-Jan-25 09:32N 43°24' E 004°59'0 0.0
2015-Jan-25 08:32N 43°24' E 004°59'0 0.0
2015-Jan-25 07:32N 43°24' E 004°59'0 0.0
2015-Jan-25 06:32N 43°24' E 004°59'0 0.0
2015-Jan-25 05:32N 43°24' E 004°59'0 0.0
2015-Jan-25 04:32N 43°24' E 004°59'0 0.0
2015-Jan-25 03:32N 43°24' E 004°59'0 0.0
2015-Jan-25 02:32N 43°24' E 004°59'0 0.0
2015-Jan-25 01:32N 43°24' E 004°59'0 0.0
2015-Jan-25 00:32N 43°24' E 004°59'0 0.0
2015-Jan-24 23:32N 43°24' E 004°59'0 0.0
2015-Jan-24 22:32N 43°24' E 004°59'0 0.0
2015-Jan-24 21:32N 43°24' E 004°59'0 0.0
2015-Jan-24 20:32N 43°24' E 004°59'0 0.0
2015-Jan-24 19:32N 43°24' E 004°59'0 0.0
2015-Jan-24 18:32N 43°24' E 004°59'0 0.0
2015-Jan-24 17:32N 43°24' E 004°59'0 0.0
2015-Jan-24 16:32N 43°24' E 004°59'0 0.0
2015-Jan-24 15:32N 43°24' E 004°59'0 0.0
2015-Jan-24 14:29N 43°24' E 004°59'0 0.0
2015-Jan-24 13:32N 43°24' E 004°59'0 0.0
2015-Jan-24 12:32N 43°24' E 004°59'0 0.0
2015-Jan-24 11:32N 43°24' E 004°59'0 0.0
2015-Jan-24 10:32N 43°24' E 004°59'0 0.0
2015-Jan-24 09:32N 43°24' E 004°59'0 0.0
2015-Jan-24 08:32N 43°24' E 004°59'0 0.0
2015-Jan-24 07:32N 43°24' E 004°59'0 0.0
2015-Jan-24 06:32N 43°24' E 004°59'0 0.0
2015-Jan-24 05:32N 43°24' E 004°59'0 0.0
2015-Jan-24 04:32N 43°24' E 004°59'0 0.0
2015-Jan-24 03:32N 43°24' E 004°59'0 0.0
2015-Jan-24 02:32N 43°24' E 004°59'0 0.0
2015-Jan-24 01:32N 43°24' E 004°59'0 0.0
2015-Jan-24 00:32N 43°24' E 004°59'0 0.0
2015-Jan-23 23:32N 43°24' E 004°59'0 0.0
2015-Jan-23 22:32N 43°24' E 004°59'0 0.0
2015-Jan-23 21:32N 43°24' E 004°59'0 0.0
2015-Jan-23 20:32N 43°24' E 004°59'0 0.0
2015-Jan-23 19:32N 43°24' E 004°59'2 1.7
2015-Jan-23 18:33N 43°23' E 004°59'45 6.1
2015-Jan-23 11:15N 43°07' E 005°56'2 0.4
2015-Jan-23 06:32N 43°06' E 005°53'0 0.0
2015-Jan-23 05:33N 43°06' E 005°53'0 0.0
2015-Jan-23 04:32N 43°06' E 005°53'0 0.0
2015-Jan-23 03:29N 43°06' E 005°53'0 0.0
2015-Jan-23 02:32N 43°06' E 005°53'0 0.0
2015-Jan-23 01:33N 43°06' E 005°53'0 0.0
2015-Jan-23 00:32N 43°06' E 005°53'0 0.0
2015-Jan-22 23:32N 43°06' E 005°53'0 0.0
2015-Jan-22 22:32N 43°06' E 005°53'0 0.0
2015-Jan-22 21:32N 43°06' E 005°53'0 0.0
2015-Jan-22 20:32N 43°06' E 005°53'0 0.0
2015-Jan-22 19:32N 43°06' E 005°53'0 0.0
2015-Jan-22 18:32N 43°06' E 005°53'2 0.4
2015-Jan-22 14:27N 43°07' E 005°56'0 0.0
2015-Jan-22 13:33N 43°07' E 005°56'0 0.0
2015-Jan-22 12:27N 43°07' E 005°56'42 5.9
2015-Jan-22 05:23N 43°16' E 004°60'8 9.7
2015-Jan-22 04:33N 43°24' E 004°59'0 0.2
2015-Jan-22 03:33N 43°24' E 004°59'0 0.0
2015-Jan-22 02:33N 43°24' E 004°59'0 0.0
2015-Jan-22 01:33N 43°24' E 004°59'0 0.0
2015-Jan-22 00:33N 43°24' E 004°59'0 0.0
2015-Jan-21 23:33N 43°24' E 004°59'0 0.0
2015-Jan-21 22:50N 43°24' E 004°59'0 0.0
2015-Jan-21 22:46N 43°24' E 004°59'0 0.0
2015-Jan-21 22:33N 43°24' E 004°59'0 0.0
2015-Jan-21 21:33N 43°24' E 004°59'0 0.0
2015-Jan-21 20:33N 43°24' E 004°59'0 0.0
2015-Jan-21 19:33N 43°24' E 004°59'0 0.0
2015-Jan-21 18:33N 43°24' E 004°59'0 0.0
2015-Jan-21 17:33N 43°24' E 004°59'0 0.0
2015-Jan-21 16:33N 43°24' E 004°59'0 0.0
2015-Jan-21 15:33N 43°24' E 004°59'4 3.7
2015-Jan-21 14:21N 43°24' E 004°53'0 0.0
2015-Jan-21 13:29N 43°24' E 004°53'0 0.0
2015-Jan-21 12:33N 43°24' E 004°53'0 0.0
2015-Jan-21 11:30N 43°24' E 004°53'0 0.0
2015-Jan-21 10:33N 43°24' E 004°53'0 0.0
2015-Jan-21 09:33N 43°24' E 004°53'0 0.0
2015-Jan-21 08:32N 43°24' E 004°53'0 0.0
2015-Jan-21 07:04N 43°24' E 004°53'4 8.3
2015-Jan-21 06:33N 43°24' E 004°59'0 0.1
2015-Jan-21 05:33N 43°24' E 004°59'0 0.0
2015-Jan-21 04:33N 43°24' E 004°59'0 0.0
2015-Jan-21 03:33N 43°24' E 004°59'0 0.0
2015-Jan-21 02:33N 43°24' E 004°59'0 0.0
2015-Jan-21 01:33N 43°24' E 004°59'0 0.0
2015-Jan-21 00:33N 43°24' E 004°59'0 0.0
2015-Jan-20 23:33N 43°24' E 004°59'0 0.0
2015-Jan-20 22:33N 43°24' E 004°59'0 0.0
2015-Jan-20 21:33N 43°24' E 004°59'0 0.0
2015-Jan-20 20:33N 43°24' E 004°59'0 0.0
2015-Jan-20 19:33N 43°24' E 004°59'1 0.6
2015-Jan-20 18:33N 43°24' E 004°59'0 0.0
2015-Jan-20 17:33N 43°24' E 004°59'0 0.0
2015-Jan-20 16:33N 43°24' E 004°59'0 0.0
2015-Jan-20 15:33N 43°24' E 004°59'0 0.0
2015-Jan-20 14:33N 43°24' E 004°59'0 0.0
2015-Jan-20 13:33N 43°24' E 004°59'0 0.0
2015-Jan-20 12:33N 43°24' E 004°59'0 0.0
2015-Jan-20 11:33N 43°24' E 004°59'0 0.0
2015-Jan-20 10:33N 43°24' E 004°59'0 0.0
2015-Jan-20 09:33N 43°24' E 004°59'0 0.0
2015-Jan-20 08:33N 43°24' E 004°59'0 0.0
2015-Jan-20 07:33N 43°24' E 004°59'0 0.0
2015-Jan-20 06:33N 43°24' E 004°59'0 0.0
2015-Jan-20 05:32N 43°24' E 004°59'0 0.0
2015-Jan-20 04:33N 43°24' E 004°59'0 0.0
2015-Jan-20 03:33N 43°24' E 004°59'0 0.0
2015-Jan-20 02:32N 43°24' E 004°59'0 0.0
2015-Jan-20 01:33N 43°24' E 004°59'0 0.0
2015-Jan-20 00:33N 43°24' E 004°59'0 0.0
2015-Jan-19 23:33N 43°24' E 004°59'0 0.0
2015-Jan-19 22:33N 43°24' E 004°59'7 6.8
2015-Jan-19 21:33N 43°25' E 004°50'0 0.0
2015-Jan-19 18:27N 43°25' E 004°50'7 7.7
2015-Jan-19 17:33N 43°24' E 004°59'  
Track history (hours):
 
Tides and Currents Weather Stations Pressure Air Temp Water Temp Dewpoint Dewpoint Depression Visibility Wind Speed Wind Dir Waves Ship Positions

Cap Aiguades

Last reported at 2015-Jan-29 17:28 UTC. Time now 2015-Jan-29 18:23 UTC.
Position N 43°24' E 004°59'.

Length 89 m; draft 4.8 m.

Type: Ship. MMSI: 228237800.

Date/timePositionNaut miles runAvg speedWind from/ knotsBaromVisibWave heightAir tempDewpointWater temp
2015-Jan-29 17:28N 43°24' E 004°59'0 0.0
2015-Jan-29 16:31N 43°24' E 004°59'0 0.0
2015-Jan-29 15:31N 43°24' E 004°59'0 0.0
2015-Jan-29 14:31N 43°24' E 004°59'0 0.0
2015-Jan-29 13:31N 43°24' E 004°59'0 0.0
2015-Jan-29 12:31N 43°24' E 004°59'0 0.0
2015-Jan-29 11:31N 43°24' E 004°59'0 0.0
2015-Jan-29 10:31N 43°24' E 004°59'0 0.0
2015-Jan-29 09:31N 43°24' E 004°59'0 0.0
2015-Jan-29 08:28N 43°24' E 004°59'0 0.0
2015-Jan-29 07:31N 43°24' E 004°59'0 0.0
2015-Jan-29 06:31N 43°24' E 004°59'0 0.0
2015-Jan-29 05:31N 43°24' E 004°59'0 0.0
2015-Jan-29 04:31N 43°24' E 004°59'0 0.0
2015-Jan-29 03:31N 43°24' E 004°59'0 0.0
2015-Jan-29 02:31N 43°24' E 004°59'0 0.0
2015-Jan-29 01:31N 43°24' E 004°59'0 0.0
2015-Jan-29 00:31N 43°24' E 004°59'0 0.0
2015-Jan-28 23:31N 43°24' E 004°59'0 0.0
2015-Jan-28 22:31N 43°24' E 004°59'5 4.3
2015-Jan-28 21:28N 43°25' E 004°53'0 0.0
2015-Jan-28 20:28N 43°25' E 004°53'0 0.0
2015-Jan-28 19:22N 43°25' E 004°53'0 0.0
2015-Jan-28 18:22N 43°25' E 004°53'1 0.9
2015-Jan-28 17:33N 43°24' E 004°53'4 4.5
2015-Jan-28 16:33N 43°24' E 004°59'0 0.0
2015-Jan-28 15:33N 43°24' E 004°59'0 0.0
2015-Jan-28 14:33N 43°24' E 004°59'0 0.0
2015-Jan-28 13:33N 43°24' E 004°59'0 0.0
2015-Jan-28 12:33N 43°24' E 004°59'0 0.0
2015-Jan-28 11:33N 43°24' E 004°59'0 0.0
2015-Jan-28 10:33N 43°24' E 004°59'0 0.0
2015-Jan-28 09:33N 43°24' E 004°59'0 0.0
2015-Jan-28 08:33N 43°24' E 004°59'0 0.0
2015-Jan-28 07:33N 43°24' E 004°59'0 0.0
2015-Jan-28 06:33N 43°24' E 004°59'0 0.0
2015-Jan-28 05:33N 43°24' E 004°59'0 0.0
2015-Jan-28 04:33N 43°24' E 004°59'0 0.0
2015-Jan-28 03:33N 43°24' E 004°59'0 0.0
2015-Jan-28 02:33N 43°24' E 004°59'0 0.0
2015-Jan-28 01:33N 43°24' E 004°59'0 0.0
2015-Jan-28 00:33N 43°24' E 004°59'0 0.0
2015-Jan-27 23:33N 43°24' E 004°59'0 0.0
2015-Jan-27 22:33N 43°24' E 004°59'0 0.0
2015-Jan-27 21:33N 43°24' E 004°59'0 0.0
2015-Jan-27 20:33N 43°24' E 004°59'0 0.0
2015-Jan-27 19:33N 43°24' E 004°59'0 0.0
2015-Jan-27 18:33N 43°24' E 004°59'0 0.0
2015-Jan-27 17:33N 43°24' E 004°59'4 4.0
2015-Jan-27 16:33N 43°24' E 004°54'2 0.4
2015-Jan-27 11:04N 43°25' E 004°51'4 0.9
2015-Jan-27 06:33N 43°24' E 004°56'2 2.1
2015-Jan-27 05:32N 43°24' E 004°59'0 0.0
2015-Jan-27 04:32N 43°24' E 004°59'0 0.0
2015-Jan-27 03:32N 43°24' E 004°59'0 0.0
2015-Jan-27 02:32N 43°24' E 004°59'0 0.0
2015-Jan-27 01:32N 43°24' E 004°59'0 0.0
2015-Jan-27 00:32N 43°24' E 004°59'0 0.0
2015-Jan-26 23:32N 43°24' E 004°59'0 0.0
2015-Jan-26 22:32N 43°24' E 004°59'0 0.0
2015-Jan-26 21:32N 43°24' E 004°59'0 0.0
2015-Jan-26 20:32N 43°24' E 004°59'0 0.0
2015-Jan-26 19:32N 43°24' E 004°59'0 0.0
2015-Jan-26 18:32N 43°24' E 004°59'0 0.0
2015-Jan-26 17:32N 43°24' E 004°59'3 3.1
2015-Jan-26 16:33N 43°24' E 004°55'3 2.7
2015-Jan-26 15:21N 43°25' E 004°51'0 0.0
2015-Jan-26 10:27N 43°25' E 004°51'2 0.5
2015-Jan-26 07:28N 43°24' E 004°53'5 5.2
2015-Jan-26 06:32N 43°24' E 004°60'0 0.0
2015-Jan-26 05:32N 43°24' E 004°60'0 0.0
2015-Jan-26 04:32N 43°24' E 004°60'0 0.0
2015-Jan-26 03:32N 43°24' E 004°60'0 0.0
2015-Jan-26 02:32N 43°24' E 004°60'0 0.0
2015-Jan-26 01:32N 43°24' E 004°60'0 0.0
2015-Jan-26 00:32N 43°24' E 004°60'0 0.0
2015-Jan-25 23:32N 43°24' E 004°60'0 0.0
2015-Jan-25 22:32N 43°24' E 004°60'0 0.0
2015-Jan-25 21:32N 43°24' E 004°60'1 0.6
2015-Jan-25 20:32N 43°24' E 004°59'0 0.0
2015-Jan-25 19:32N 43°24' E 004°59'0 0.0
2015-Jan-25 18:32N 43°24' E 004°59'0 0.0
2015-Jan-25 17:32N 43°24' E 004°59'0 0.0
2015-Jan-25 16:32N 43°24' E 004°59'0 0.0
2015-Jan-25 15:32N 43°24' E 004°59'0 0.0
2015-Jan-25 14:32N 43°24' E 004°59'0 0.0
2015-Jan-25 13:32N 43°24' E 004°59'0 0.0
2015-Jan-25 12:32N 43°24' E 004°59'0 0.0
2015-Jan-25 11:32N 43°24' E 004°59'0 0.0
2015-Jan-25 10:32N 43°24' E 004°59'0 0.0
2015-Jan-25 09:32N 43°24' E 004°59'0 0.0
2015-Jan-25 08:32N 43°24' E 004°59'0 0.0
2015-Jan-25 07:32N 43°24' E 004°59'0 0.0
2015-Jan-25 06:32N 43°24' E 004°59'0 0.0
2015-Jan-25 05:32N 43°24' E 004°59'0 0.0
2015-Jan-25 04:32N 43°24' E 004°59'0 0.0
2015-Jan-25 03:32N 43°24' E 004°59'0 0.0
2015-Jan-25 02:32N 43°24' E 004°59'0 0.0
2015-Jan-25 01:32N 43°24' E 004°59'0 0.0
2015-Jan-25 00:32N 43°24' E 004°59'0 0.0
2015-Jan-24 23:32N 43°24' E 004°59'0 0.0
2015-Jan-24 22:32N 43°24' E 004°59'0 0.0
2015-Jan-24 21:32N 43°24' E 004°59'0 0.0
2015-Jan-24 20:32N 43°24' E 004°59'0 0.0
2015-Jan-24 19:32N 43°24' E 004°59'0 0.0
2015-Jan-24 18:32N 43°24' E 004°59'0 0.0
2015-Jan-24 17:32N 43°24' E 004°59'0 0.0
2015-Jan-24 16:32N 43°24' E 004°59'0 0.0
2015-Jan-24 15:32N 43°24' E 004°59'0 0.0
2015-Jan-24 14:29N 43°24' E 004°59'0 0.0
2015-Jan-24 13:32N 43°24' E 004°59'0 0.0
2015-Jan-24 12:32N 43°24' E 004°59'0 0.0
2015-Jan-24 11:32N 43°24' E 004°59'0 0.0
2015-Jan-24 10:32N 43°24' E 004°59'0 0.0
2015-Jan-24 09:32N 43°24' E 004°59'0 0.0
2015-Jan-24 08:32N 43°24' E 004°59'0 0.0
2015-Jan-24 07:32N 43°24' E 004°59'0 0.0
2015-Jan-24 06:32N 43°24' E 004°59'0 0.0
2015-Jan-24 05:32N 43°24' E 004°59'0 0.0
2015-Jan-24 04:32N 43°24' E 004°59'0 0.0
2015-Jan-24 03:32N 43°24' E 004°59'0 0.0
2015-Jan-24 02:32N 43°24' E 004°59'0 0.0
2015-Jan-24 01:32N 43°24' E 004°59'0 0.0
2015-Jan-24 00:32N 43°24' E 004°59'0 0.0
2015-Jan-23 23:32N 43°24' E 004°59'0 0.0
2015-Jan-23 22:32N 43°24' E 004°59'0 0.0
2015-Jan-23 21:32N 43°24' E 004°59'0 0.0
2015-Jan-23 20:32N 43°24' E 004°59'0 0.0
2015-Jan-23 19:32N 43°24' E 004°59'2 1.7
2015-Jan-23 18:33N 43°23' E 004°59'45 6.1
2015-Jan-23 11:15N 43°07' E 005°56'2 0.4
2015-Jan-23 06:32N 43°06' E 005°53'0 0.0
2015-Jan-23 05:33N 43°06' E 005°53'0 0.0
2015-Jan-23 04:32N 43°06' E 005°53'0 0.0
2015-Jan-23 03:29N 43°06' E 005°53'0 0.0
2015-Jan-23 02:32N 43°06' E 005°53'0 0.0
2015-Jan-23 01:33N 43°06' E 005°53'0 0.0
2015-Jan-23 00:32N 43°06' E 005°53'0 0.0
2015-Jan-22 23:32N 43°06' E 005°53'0 0.0
2015-Jan-22 22:32N 43°06' E 005°53'0 0.0
2015-Jan-22 21:32N 43°06' E 005°53'0 0.0
2015-Jan-22 20:32N 43°06' E 005°53'0 0.0
2015-Jan-22 19:32N 43°06' E 005°53'0 0.0
2015-Jan-22 18:32N 43°06' E 005°53'2 0.4
2015-Jan-22 14:27N 43°07' E 005°56'0 0.0
2015-Jan-22 13:33N 43°07' E 005°56'0 0.0
2015-Jan-22 12:27N 43°07' E 005°56'42 5.9
2015-Jan-22 05:23N 43°16' E 004°60'8 9.7
2015-Jan-22 04:33N 43°24' E 004°59'0 0.2
2015-Jan-22 03:33N 43°24' E 004°59'0 0.0
2015-Jan-22 02:33N 43°24' E 004°59'0 0.0
2015-Jan-22 01:33N 43°24' E 004°59'0 0.0
2015-Jan-22 00:33N 43°24' E 004°59'0 0.0
2015-Jan-21 23:33N 43°24' E 004°59'0 0.0
2015-Jan-21 22:50N 43°24' E 004°59'0 0.0
2015-Jan-21 22:46N 43°24' E 004°59'0 0.0
2015-Jan-21 22:33N 43°24' E 004°59'0 0.0
2015-Jan-21 21:33N 43°24' E 004°59'0 0.0
2015-Jan-21 20:33N 43°24' E 004°59'0 0.0
2015-Jan-21 19:33N 43°24' E 004°59'0 0.0
2015-Jan-21 18:33N 43°24' E 004°59'0 0.0
2015-Jan-21 17:33N 43°24' E 004°59'0 0.0
2015-Jan-21 16:33N 43°24' E 004°59'0 0.0
2015-Jan-21 15:33N 43°24' E 004°59'4 3.7
2015-Jan-21 14:21N 43°24' E 004°53'0 0.0
2015-Jan-21 13:29N 43°24' E 004°53'0 0.0
2015-Jan-21 12:33N 43°24' E 004°53'0 0.0
2015-Jan-21 11:30N 43°24' E 004°53'0 0.0
2015-Jan-21 10:33N 43°24' E 004°53'0 0.0
2015-Jan-21 09:33N 43°24' E 004°53'0 0.0
2015-Jan-21 08:32N 43°24' E 004°53'0 0.0
2015-Jan-21 07:04N 43°24' E 004°53'4 8.3
2015-Jan-21 06:33N 43°24' E 004°59'0 0.1
2015-Jan-21 05:33N 43°24' E 004°59'0 0.0
2015-Jan-21 04:33N 43°24' E 004°59'0 0.0
2015-Jan-21 03:33N 43°24' E 004°59'0 0.0
2015-Jan-21 02:33N 43°24' E 004°59'0 0.0
2015-Jan-21 01:33N 43°24' E 004°59'0 0.0
2015-Jan-21 00:33N 43°24' E 004°59'0 0.0
2015-Jan-20 23:33N 43°24' E 004°59'0 0.0
2015-Jan-20 22:33N 43°24' E 004°59'0 0.0
2015-Jan-20 21:33N 43°24' E 004°59'0 0.0
2015-Jan-20 20:33N 43°24' E 004°59'0 0.0
2015-Jan-20 19:33N 43°24' E 004°59'1 0.6
2015-Jan-20 18:33N 43°24' E 004°59'0 0.0
2015-Jan-20 17:33N 43°24' E 004°59'0 0.0
2015-Jan-20 16:33N 43°24' E 004°59'0 0.0
2015-Jan-20 15:33N 43°24' E 004°59'0 0.0
2015-Jan-20 14:33N 43°24' E 004°59'0 0.0
2015-Jan-20 13:33N 43°24' E 004°59'0 0.0
2015-Jan-20 12:33N 43°24' E 004°59'0 0.0
2015-Jan-20 11:33N 43°24' E 004°59'0 0.0
2015-Jan-20 10:33N 43°24' E 004°59'0 0.0
2015-Jan-20 09:33N 43°24' E 004°59'0 0.0
2015-Jan-20 08:33N 43°24' E 004°59'0 0.0
2015-Jan-20 07:33N 43°24' E 004°59'0 0.0
2015-Jan-20 06:33N 43°24' E 004°59'0 0.0
2015-Jan-20 05:32N 43°24' E 004°59'0 0.0
2015-Jan-20 04:33N 43°24' E 004°59'0 0.0
2015-Jan-20 03:33N 43°24' E 004°59'0 0.0
2015-Jan-20 02:32N 43°24' E 004°59'0 0.0
2015-Jan-20 01:33N 43°24' E 004°59'0 0.0
2015-Jan-20 00:33N 43°24' E 004°59'0 0.0
2015-Jan-19 23:33N 43°24' E 004°59'0 0.0
2015-Jan-19 22:33N 43°24' E 004°59'7 6.8
2015-Jan-19 21:33N 43°25' E 004°50'0 0.0
2015-Jan-19 18:27N 43°25' E 004°50'7 7.7
2015-Jan-19 17:33N 43°24' E 004°59'  

Dump ship's entire track history